»·PEaware :: N75232 KSNA-KSBD

N75232 :: KSNA-KSBD

FLIGHT INFORMATION

Flight Status: Arrived
Operator: Privately registered:
United States
More flights under this callsign
Pilot: Daniel B. (28719)
Aircraft: CESSNA 172 SKYHAWK
(C172)
More flights by this aircraft type
Origin: KSNA John Wayne-Orange Co
United States
Destination: KSBD San Bernardino Intl
United States
More flights between these airports :: More routes between these airports
Route: +SLI V8 PDZ
File this flight plan on PilotEdge
Remarks:
Altitude:
(Current/Filed)
5,000ft
Speed:
(Current/Filed)
115kts
Departed: 06-Jun-20 04:33 PM
Arrived: 06-Jun-20 05:09 PM
Distance/Time
Traveled:
41nm/0:36
Distance/Time
To Go:
Arrived

Flight Plot

Page will automatically refresh every two minutes.


Map Options




Map Legend


Flown Route
Filed Route
Departure Airport
Arrival Airport
Navaid (VOR, NDB)
Fix

Horizontal Profiles

Position Reports

Time Latitude Longitude Heading Altitude Ground
Speed
06-Jun-20 16:16 33.673058 -117.866158 118 60ft 0kts
06-Jun-20 16:17 33.673058 -117.866158 118 60ft 0kts
06-Jun-20 16:18 33.673058 -117.866158 118 60ft 0kts
06-Jun-20 16:19 33.673058 -117.866158 118 60ft 0kts
06-Jun-20 16:20 33.673058 -117.866158 118 60ft 0kts
06-Jun-20 16:21 33.673058 -117.866158 118 60ft 0kts
06-Jun-20 16:22 33.673058 -117.866158 118 60ft 0kts
06-Jun-20 16:23 33.673058 -117.866158 118 60ft 0kts
06-Jun-20 16:24 33.673058 -117.866158 118 60ft 0kts
06-Jun-20 16:25 33.673058 -117.866158 118 60ft 0kts
06-Jun-20 16:26 33.673058 -117.866158 118 60ft 0kts
06-Jun-20 16:27 33.673129 -117.866190 306 60ft 6kts
06-Jun-20 16:28 33.675184 -117.865797 26 60ft 19kts
06-Jun-20 16:30 33.679010 -117.863378 28 60ft 21kts
06-Jun-20 16:31 33.679985 -117.863676 298 60ft 0kts
06-Jun-20 16:32 33.679985 -117.863676 298 60ft 0kts
06-Jun-20 16:33 33.678818 -117.864990 208 60ft 49kts
06-Jun-20 16:34 33.667785 -117.877462 234 653ft 75kts
06-Jun-20 16:35 33.658366 -117.895983 236 1409ft 76kts
06-Jun-20 16:36 33.648344 -117.915772 234 2229ft 71kts
06-Jun-20 16:37 33.651549 -117.933884 359 2966ft 95kts
06-Jun-20 16:38 33.671729 -117.927993 12 3506ft 100kts
06-Jun-20 16:39 33.691231 -117.921858 6 3992ft 104kts
06-Jun-20 16:40 33.712139 -117.916211 10 4521ft 103kts
06-Jun-20 16:41 33.731969 -117.909258 9 4991ft 105kts
06-Jun-20 16:42 33.754918 -117.901847 7 5095ft 125kts
06-Jun-20 16:43 33.780282 -117.894659 9 5063ft 130kts
06-Jun-20 16:44 33.807161 -117.886625 8 5029ft 132kts
06-Jun-20 16:44 33.829997 -117.877830 33 5006ft 136kts
06-Jun-20 16:46 33.840058 -117.836301 82 4982ft 135kts
06-Jun-20 16:47 33.847768 -117.798211 79 5026ft 133kts
06-Jun-20 16:47 33.854838 -117.765335 79 5032ft 131kts
06-Jun-20 16:49 33.863479 -117.718230 72 5123ft 123kts
06-Jun-20 16:49 33.873796 -117.688986 56 5083ft 112kts
06-Jun-20 16:50 33.882918 -117.655901 62 5123ft 112kts
06-Jun-20 16:52 33.894135 -117.619769 69 5110ft 117kts
06-Jun-20 16:52 33.899330 -117.592824 73 5114ft 119kts
06-Jun-20 16:53 33.906234 -117.560726 65 5120ft 119kts
06-Jun-20 16:54 33.917333 -117.530473 56 5129ft 117kts
06-Jun-20 16:55 33.932378 -117.501229 49 5117ft 122kts
06-Jun-20 16:56 33.948624 -117.472173 44 5128ft 123kts
06-Jun-20 16:57 33.970149 -117.457260 340 5047ft 111kts
06-Jun-20 16:58 33.991710 -117.472727 325 4472ft 113kts
06-Jun-20 16:59 34.012278 -117.487718 350 4121ft 105kts
06-Jun-20 17:00 34.025116 -117.465583 81 4035ft 107kts
06-Jun-20 17:01 34.033760 -117.434424 66 3527ft 109kts
06-Jun-20 17:02 34.042888 -117.407148 67 3520ft 111kts
06-Jun-20 17:03 34.051810 -117.377672 65 3385ft 113kts
06-Jun-20 17:04 34.061697 -117.346903 69 2838ft 110kts
06-Jun-20 17:05 34.070559 -117.317477 69 2291ft 106kts
06-Jun-20 17:06 34.079664 -117.287888 69 1793ft 100kts
06-Jun-20 17:07 34.088438 -117.258017 71 1306ft 74kts
06-Jun-20 17:08 34.093156 -117.242333 34 1098ft 12kts
06-Jun-20 17:09 34.094128 -117.242046 1 1099ft 0kts
06-Jun-20 17:10 34.094771 -117.242047 11 1099ft 10kts
06-Jun-20 17:11 34.096304 -117.237725 71 1111ft 16kts
06-Jun-20 17:12 34.097885 -117.232375 70 1124ft 17kts
06-Jun-20 17:13 34.099314 -117.227592 69 1137ft 8kts
06-Jun-20 17:14 34.100685 -117.222872 69 1150ft 12kts
06-Jun-20 17:15 34.100239 -117.224409 249 1147ft 22kts
06-Jun-20 17:16 34.100574 -117.226563 13 1140ft 0kts
06-Jun-20 17:17 34.100574 -117.226563 13 1140ft 0kts
06-Jun-20 17:18 34.100574 -117.226563 13 1140ft 0kts
06-Jun-20 17:19 34.100574 -117.226563 13 1140ft 0kts
06-Jun-20 17:20 34.100574 -117.226563 13 1140ft 0kts
06-Jun-20 17:21 34.100574 -117.226563 13 1140ft 0kts
06-Jun-20 17:22 34.100574 -117.226563 13 1140ft 0kts

Navigation Log

Ident Type
Flight plan parsing failed, navigation log unavailable